logo
Search for airport 
image banner adimage banner adimage banner ad
image banner ad

SHSD - Sonda

Located in Santiago, Chile

ICAO - SHSD, IATA -

Data provided by Airmate  

General information

Coordinates: S33°26'15" W70°39'21"
Elevation is 76 feet MSL.
 
View others Airports in Magallanes

Operational data

Special qualification required
Current time UTC:
Current local time:
Weather at : SCTB - Eulogio Sanchez - Tobalaba ( 10 km )
METAR: SCTB 171300Z 10003KT 8000 BKN160 07/04 Q1018
View NOTAMs / SUP AIP / TFR affecting this airport [VIEW]
Communications frequencies: [VIEW]

Runways:

Airport contact information

Address: Santiago Chile

Satellite view of SHSD